KLIT/LIT METAR and TAF weather

Enter ICAO airport designator
Station Type Date Time Source
KLIT METAR 2021/03/09 08:53 UTC NOAA

KLIT 090853Z 20008KT 10SM BKN250 09/02 A3033 RMK AO2 SLP273 T00940017 57013 $


Station Type Date Time Source
KLIT Decoded METAR 2021/03/09 08:53 UTC NOAA

LITTLE ROCK ADAMS FIELD, AR, United States (KLIT) 34-44N 92-14W 79M
Mar 09, 2021 - 03:53 AM EST / 2021.03.09 0853 UTC
Wind: from the SSW (200 degrees) at 9 MPH (8 KT):0
Visibility: 10 mile(s):0
Sky conditions: mostly cloudy
Temperature: 48.9 F (9.4 C)
Dew Point: 35.1 F (1.7 C)
Relative Humidity: 58%
Pressure (altimeter): 30.33 in. Hg (1027 hPa)
Pressure tendency: 0.04 inches (1.3 hPa) lower than three hours ago
ob: KLIT 090853Z 20008KT 10SM BKN250 09/02 A3033 RMK AO2 SLP273 T00940017 57013
cycle: 9

Station Type Date Time Source
KLIT TAF 2021/03/09 06:36 UTC NOAA

TAF KLIT 090535Z 0906/1006 VRB04KT P6SM BKN250
FM091500 18010KT P6SM BKN050 BKN250
FM100100 16008KT P6SM SCT050 OVC100

Example: see airport list